sensor_id;sensor_type;location;lat;lon;timestamp;P1;durP1;ratioP1;P2;durP2;ratioP2
58302;SDS011;44109;52.398;7.024;2022-07-05T00:00:36;6.80;;;2.45;;
58302;SDS011;44109;52.398;7.024;2022-07-05T00:03:03;4.65;;;2.42;;
58302;SDS011;44109;52.398;7.024;2022-07-05T00:05:31;4.22;;;2.50;;
58302;SDS011;44109;52.398;7.024;2022-07-05T00:07:58;3.00;;;2.20;;
58302;SDS011;44109;52.398;7.024;2022-07-05T00:10:26;3.10;;;2.05;;
58302;SDS011;44109;52.398;7.024;2022-07-05T00:12:53;3.03;;;2.10;;
58302;SDS011;44109;52.398;7.024;2022-07-05T00:15:21;2.92;;;2.05;;
58302;SDS011;44109;52.398;7.024;2022-07-05T00:17:50;3.60;;;2.22;;
58302;SDS011;44109;52.398;7.024;2022-07-05T00:20:18;4.82;;;2.70;;
58302;SDS011;44109;52.398;7.024;2022-07-05T00:22:45;4.20;;;2.30;;
58302;SDS011;44109;52.398;7.024;2022-07-05T00:25:13;3.58;;;2.35;;
58302;SDS011;44109;52.398;7.024;2022-07-05T00:27:41;3.35;;;2.47;;
58302;SDS011;44109;52.398;7.024;2022-07-05T00:30:09;3.03;;;2.25;;
58302;SDS011;44109;52.398;7.024;2022-07-05T00:32:39;6.28;;;3.25;;
58302;SDS011;44109;52.398;7.024;2022-07-05T00:35:08;4.90;;;2.88;;
58302;SDS011;44109;52.398;7.024;2022-07-05T00:37:35;3.55;;;2.40;;
58302;SDS011;44109;52.398;7.024;2022-07-05T00:40:03;3.60;;;2.30;;
58302;SDS011;44109;52.398;7.024;2022-07-05T00:42:33;4.10;;;3.28;;
58302;SDS011;44109;52.398;7.024;2022-07-05T00:45:02;6.32;;;3.20;;
58302;SDS011;44109;52.398;7.024;2022-07-05T00:47:31;4.50;;;2.30;;
58302;SDS011;44109;52.398;7.024;2022-07-05T00:49:58;3.83;;;2.50;;
58302;SDS011;44109;52.398;7.024;2022-07-05T00:52:27;4.00;;;2.25;;
58302;SDS011;44109;52.398;7.024;2022-07-05T00:54:55;4.53;;;2.30;;
58302;SDS011;44109;52.398;7.024;2022-07-05T00:57:23;3.70;;;2.47;;
58302;SDS011;44109;52.398;7.024;2022-07-05T00:59:50;3.05;;;2.25;;
58302;SDS011;44109;52.398;7.024;2022-07-05T01:02:18;3.33;;;2.35;;
58302;SDS011;44109;52.398;7.024;2022-07-05T01:04:48;3.38;;;2.10;;
58302;SDS011;44109;52.398;7.024;2022-07-05T01:07:17;4.65;;;2.15;;
58302;SDS011;44109;52.398;7.024;2022-07-05T01:09:48;3.15;;;2.10;;
58302;SDS011;44109;52.398;7.024;2022-07-05T01:12:16;3.65;;;2.28;;
58302;SDS011;44109;52.398;7.024;2022-07-05T01:14:44;5.07;;;2.20;;
58302;SDS011;44109;52.398;7.024;2022-07-05T01:17:13;2.97;;;2.28;;
58302;SDS011;44109;52.398;7.024;2022-07-05T01:19:42;3.42;;;2.92;;
58302;SDS011;44109;52.398;7.024;2022-07-05T01:22:12;4.13;;;2.63;;
58302;SDS011;44109;52.398;7.024;2022-07-05T01:24:46;3.40;;;2.30;;
58302;SDS011;44109;52.398;7.024;2022-07-05T01:27:15;5.10;;;2.55;;
58302;SDS011;44109;52.398;7.024;2022-07-05T01:29:43;5.05;;;2.63;;
58302;SDS011;44109;52.398;7.024;2022-07-05T01:32:12;4.95;;;2.80;;
58302;SDS011;44109;52.398;7.024;2022-07-05T01:34:40;3.63;;;2.85;;
58302;SDS011;44109;52.398;7.024;2022-07-05T01:37:08;5.72;;;2.70;;
58302;SDS011;44109;52.398;7.024;2022-07-05T01:39:37;2.95;;;2.15;;
58302;SDS011;44109;52.398;7.024;2022-07-05T01:42:06;3.95;;;2.38;;
58302;SDS011;44109;52.398;7.024;2022-07-05T01:44:34;3.88;;;2.28;;
58302;SDS011;44109;52.398;7.024;2022-07-05T01:47:03;4.38;;;2.60;;
58302;SDS011;44109;52.398;7.024;2022-07-05T01:49:36;4.90;;;2.83;;
58302;SDS011;44109;52.398;7.024;2022-07-05T01:52:10;4.28;;;3.25;;
58302;SDS011;44109;52.398;7.024;2022-07-05T01:54:39;4.47;;;2.97;;
58302;SDS011;44109;52.398;7.024;2022-07-05T01:57:09;4.18;;;2.40;;
58302;SDS011;44109;52.398;7.024;2022-07-05T01:59:37;3.72;;;2.30;;
58302;SDS011;44109;52.398;7.024;2022-07-05T02:02:05;5.13;;;2.83;;
58302;SDS011;44109;52.398;7.024;2022-07-05T02:04:35;3.92;;;2.92;;
58302;SDS011;44109;52.398;7.024;2022-07-05T02:07:04;4.60;;;3.17;;
58302;SDS011;44109;52.398;7.024;2022-07-05T02:09:33;5.03;;;3.00;;
58302;SDS011;44109;52.398;7.024;2022-07-05T02:12:01;4.80;;;2.90;;
58302;SDS011;44109;52.398;7.024;2022-07-05T02:14:31;4.70;;;3.00;;
58302;SDS011;44109;52.398;7.024;2022-07-05T02:16:59;4.85;;;3.28;;
58302;SDS011;44109;52.398;7.024;2022-07-05T02:19:27;5.88;;;3.70;;
58302;SDS011;44109;52.398;7.024;2022-07-05T02:21:55;4.40;;;3.15;;
58302;SDS011;44109;52.398;7.024;2022-07-05T02:24:22;4.93;;;3.13;;
58302;SDS011;44109;52.398;7.024;2022-07-05T02:26:50;3.63;;;2.67;;
58302;SDS011;44109;52.398;7.024;2022-07-05T02:29:18;4.80;;;2.80;;
58302;SDS011;44109;52.398;7.024;2022-07-05T02:31:47;3.78;;;2.90;;
58302;SDS011;44109;52.398;7.024;2022-07-05T02:34:17;5.88;;;3.63;;
58302;SDS011;44109;52.398;7.024;2022-07-05T02:36:44;4.35;;;2.83;;
58302;SDS011;44109;52.398;7.024;2022-07-05T02:39:12;4.75;;;3.13;;
58302;SDS011;44109;52.398;7.024;2022-07-05T02:41:39;5.97;;;3.50;;
58302;SDS011;44109;52.398;7.024;2022-07-05T02:44:07;7.10;;;3.70;;
58302;SDS011;44109;52.398;7.024;2022-07-05T02:46:34;6.13;;;3.72;;
58302;SDS011;44109;52.398;7.024;2022-07-05T02:49:04;5.57;;;4.25;;
58302;SDS011;44109;52.398;7.024;2022-07-05T02:51:32;5.88;;;4.10;;
58302;SDS011;44109;52.398;7.024;2022-07-05T02:53:59;5.45;;;3.70;;
58302;SDS011;44109;52.398;7.024;2022-07-05T02:56:27;6.80;;;3.85;;
58302;SDS011;44109;52.398;7.024;2022-07-05T02:58:54;7.03;;;4.63;;
58302;SDS011;44109;52.398;7.024;2022-07-05T03:01:22;6.95;;;4.40;;
58302;SDS011;44109;52.398;7.024;2022-07-05T03:03:49;5.57;;;3.95;;
58302;SDS011;44109;52.398;7.024;2022-07-05T03:06:18;6.20;;;3.65;;
58302;SDS011;44109;52.398;7.024;2022-07-05T03:08:45;5.15;;;3.88;;
58302;SDS011;44109;52.398;7.024;2022-07-05T03:11:13;5.07;;;4.05;;
58302;SDS011;44109;52.398;7.024;2022-07-05T03:13:41;5.18;;;3.75;;
58302;SDS011;44109;52.398;7.024;2022-07-05T03:16:09;7.82;;;4.03;;
58302;SDS011;44109;52.398;7.024;2022-07-05T03:18:36;5.75;;;3.42;;
58302;SDS011;44109;52.398;7.024;2022-07-05T03:21:04;4.88;;;3.55;;
58302;SDS011;44109;52.398;7.024;2022-07-05T03:23:33;5.47;;;4.10;;
58302;SDS011;44109;52.398;7.024;2022-07-05T03:26:00;5.57;;;4.00;;
58302;SDS011;44109;52.398;7.024;2022-07-05T03:28:28;5.72;;;4.05;;
58302;SDS011;44109;52.398;7.024;2022-07-05T03:30:55;6.82;;;4.28;;
58302;SDS011;44109;52.398;7.024;2022-07-05T03:33:23;5.13;;;3.78;;
58302;SDS011;44109;52.398;7.024;2022-07-05T03:35:51;4.47;;;3.50;;
58302;SDS011;44109;52.398;7.024;2022-07-05T03:38:18;5.13;;;3.67;;
58302;SDS011;44109;52.398;7.024;2022-07-05T03:40:47;5.18;;;4.07;;
58302;SDS011;44109;52.398;7.024;2022-07-05T03:43:15;5.80;;;3.42;;
58302;SDS011;44109;52.398;7.024;2022-07-05T03:45:43;5.95;;;3.88;;
58302;SDS011;44109;52.398;7.024;2022-07-05T03:48:10;4.93;;;3.50;;
58302;SDS011;44109;52.398;7.024;2022-07-05T03:50:38;4.80;;;3.58;;
58302;SDS011;44109;52.398;7.024;2022-07-05T03:53:05;4.78;;;3.88;;
58302;SDS011;44109;52.398;7.024;2022-07-05T03:55:33;5.90;;;3.03;;
58302;SDS011;44109;52.398;7.024;2022-07-05T03:58:01;4.72;;;3.53;;
58302;SDS011;44109;52.398;7.024;2022-07-05T04:00:30;4.90;;;3.13;;
58302;SDS011;44109;52.398;7.024;2022-07-05T04:02:59;6.40;;;3.97;;
58302;SDS011;44109;52.398;7.024;2022-07-05T04:05:27;5.30;;;3.65;;
58302;SDS011;44109;52.398;7.024;2022-07-05T04:07:55;4.45;;;3.17;;
58302;SDS011;44109;52.398;7.024;2022-07-05T04:10:23;4.72;;;2.92;;
58302;SDS011;44109;52.398;7.024;2022-07-05T04:12:51;4.47;;;3.13;;
58302;SDS011;44109;52.398;7.024;2022-07-05T04:15:20;3.92;;;3.08;;
58302;SDS011;44109;52.398;7.024;2022-07-05T04:17:48;4.95;;;3.40;;
58302;SDS011;44109;52.398;7.024;2022-07-05T04:20:17;5.90;;;4.28;;
58302;SDS011;44109;52.398;7.024;2022-07-05T04:22:46;6.28;;;3.78;;
58302;SDS011;44109;52.398;7.024;2022-07-05T04:25:14;6.38;;;4.07;;
58302;SDS011;44109;52.398;7.024;2022-07-05T04:27:46;5.32;;;3.55;;
58302;SDS011;44109;52.398;7.024;2022-07-05T04:30:17;5.70;;;3.33;;
58302;SDS011;44109;52.398;7.024;2022-07-05T04:32:48;4.35;;;3.42;;
58302;SDS011;44109;52.398;7.024;2022-07-05T04:35:16;5.40;;;4.22;;
58302;SDS011;44109;52.398;7.024;2022-07-05T04:37:44;5.20;;;3.65;;
58302;SDS011;44109;52.398;7.024;2022-07-05T04:40:13;5.32;;;3.92;;
58302;SDS011;44109;52.398;7.024;2022-07-05T04:42:41;6.85;;;5.53;;
58302;SDS011;44109;52.398;7.024;2022-07-05T04:45:09;6.80;;;5.22;;
58302;SDS011;44109;52.398;7.024;2022-07-05T04:47:39;7.90;;;6.47;;
58302;SDS011;44109;52.398;7.024;2022-07-05T04:50:06;7.75;;;6.63;;
58302;SDS011;44109;52.398;7.024;2022-07-05T04:52:35;7.38;;;5.25;;
58302;SDS011;44109;52.398;7.024;2022-07-05T04:55:03;6.10;;;5.20;;
58302;SDS011;44109;52.398;7.024;2022-07-05T04:57:35;6.05;;;5.03;;
58302;SDS011;44109;52.398;7.024;2022-07-05T05:00:05;7.45;;;4.68;;
58302;SDS011;44109;52.398;7.024;2022-07-05T05:02:35;6.55;;;4.95;;
58302;SDS011;44109;52.398;7.024;2022-07-05T05:05:04;6.85;;;5.68;;
58302;SDS011;44109;52.398;7.024;2022-07-05T05:07:33;6.45;;;5.20;;
58302;SDS011;44109;52.398;7.024;2022-07-05T05:10:03;7.15;;;5.28;;
58302;SDS011;44109;52.398;7.024;2022-07-05T05:12:32;6.30;;;4.90;;
58302;SDS011;44109;52.398;7.024;2022-07-05T05:15:00;7.20;;;4.82;;
58302;SDS011;44109;52.398;7.024;2022-07-05T05:17:33;6.50;;;5.07;;
58302;SDS011;44109;52.398;7.024;2022-07-05T05:20:05;6.45;;;4.55;;
58302;SDS011;44109;52.398;7.024;2022-07-05T05:22:38;6.55;;;4.72;;
58302;SDS011;44109;52.398;7.024;2022-07-05T05:25:05;6.97;;;5.07;;
58302;SDS011;44109;52.398;7.024;2022-07-05T05:27:34;7.70;;;5.18;;
58302;SDS011;44109;52.398;7.024;2022-07-05T05:30:02;5.40;;;4.70;;
58302;SDS011;44109;52.398;7.024;2022-07-05T05:32:30;8.73;;;5.35;;
58302;SDS011;44109;52.398;7.024;2022-07-05T05:34:58;6.47;;;5.03;;
58302;SDS011;44109;52.398;7.024;2022-07-05T05:37:27;6.65;;;5.28;;
58302;SDS011;44109;52.398;7.024;2022-07-05T05:39:54;7.70;;;5.32;;
58302;SDS011;44109;52.398;7.024;2022-07-05T05:42:22;7.00;;;5.53;;
58302;SDS011;44109;52.398;7.024;2022-07-05T05:44:49;9.27;;;6.03;;
58302;SDS011;44109;52.398;7.024;2022-07-05T05:47:17;6.32;;;4.75;;
58302;SDS011;44109;52.398;7.024;2022-07-05T05:49:44;7.20;;;4.75;;
58302;SDS011;44109;52.398;7.024;2022-07-05T05:52:12;7.47;;;5.55;;
58302;SDS011;44109;52.398;7.024;2022-07-05T05:54:40;8.45;;;5.88;;
58302;SDS011;44109;52.398;7.024;2022-07-05T05:57:08;7.07;;;6.10;;
58302;SDS011;44109;52.398;7.024;2022-07-05T05:59:36;7.30;;;6.07;;
58302;SDS011;44109;52.398;7.024;2022-07-05T06:02:03;7.30;;;6.25;;
58302;SDS011;44109;52.398;7.024;2022-07-05T06:04:31;8.52;;;6.45;;
58302;SDS011;44109;52.398;7.024;2022-07-05T06:06:58;6.38;;;5.22;;
58302;SDS011;44109;52.398;7.024;2022-07-05T06:09:26;8.60;;;6.18;;
58302;SDS011;44109;52.398;7.024;2022-07-05T06:11:55;10.00;;;6.05;;
58302;SDS011;44109;52.398;7.024;2022-07-05T06:14:22;6.28;;;5.57;;
58302;SDS011;44109;52.398;7.024;2022-07-05T06:16:50;7.18;;;5.70;;
58302;SDS011;44109;52.398;7.024;2022-07-05T06:19:17;7.53;;;5.43;;
58302;SDS011;44109;52.398;7.024;2022-07-05T06:21:45;9.45;;;5.40;;
58302;SDS011;44109;52.398;7.024;2022-07-05T06:24:12;7.82;;;5.40;;
58302;SDS011;44109;52.398;7.024;2022-07-05T06:26:40;8.25;;;5.55;;
58302;SDS011;44109;52.398;7.024;2022-07-05T06:29:09;8.80;;;6.10;;
58302;SDS011;44109;52.398;7.024;2022-07-05T06:31:36;7.75;;;6.00;;
58302;SDS011;44109;52.398;7.024;2022-07-05T06:34:04;8.82;;;5.65;;
58302;SDS011;44109;52.398;7.024;2022-07-05T06:36:31;7.40;;;4.95;;
58302;SDS011;44109;52.398;7.024;2022-07-05T06:38:59;7.55;;;5.20;;
58302;SDS011;44109;52.398;7.024;2022-07-05T06:41:26;7.30;;;5.03;;
58302;SDS011;44109;52.398;7.024;2022-07-05T06:43:54;5.40;;;4.85;;
58302;SDS011;44109;52.398;7.024;2022-07-05T06:46:23;6.35;;;4.80;;
58302;SDS011;44109;52.398;7.024;2022-07-05T06:48:50;6.20;;;4.22;;
58302;SDS011;44109;52.398;7.024;2022-07-05T06:51:18;5.18;;;4.18;;
58302;SDS011;44109;52.398;7.024;2022-07-05T06:53:45;4.68;;;4.18;;
58302;SDS011;44109;52.398;7.024;2022-07-05T06:56:13;6.43;;;4.32;;
58302;SDS011;44109;52.398;7.024;2022-07-05T06:58:40;6.15;;;4.65;;
58302;SDS011;44109;52.398;7.024;2022-07-05T07:01:08;5.20;;;3.63;;
58302;SDS011;44109;52.398;7.024;2022-07-05T07:03:37;6.20;;;3.40;;
58302;SDS011;44109;52.398;7.024;2022-07-05T07:06:05;5.07;;;3.67;;
58302;SDS011;44109;52.398;7.024;2022-07-05T07:08:33;6.03;;;4.00;;
58302;SDS011;44109;52.398;7.024;2022-07-05T07:11:18;4.28;;;3.33;;
58302;SDS011;44109;52.398;7.024;2022-07-05T07:13:46;4.93;;;3.33;;
58302;SDS011;44109;52.398;7.024;2022-07-05T07:16:13;4.95;;;2.92;;
58302;SDS011;44109;52.398;7.024;2022-07-05T07:18:42;3.00;;;2.25;;
58302;SDS011;44109;52.398;7.024;2022-07-05T07:21:10;5.38;;;2.88;;
58302;SDS011;44109;52.398;7.024;2022-07-05T07:23:37;5.30;;;2.60;;
58302;SDS011;44109;52.398;7.024;2022-07-05T07:26:05;5.15;;;2.70;;
58302;SDS011;44109;52.398;7.024;2022-07-05T07:28:32;3.22;;;1.95;;
58302;SDS011;44109;52.398;7.024;2022-07-05T07:31:00;3.60;;;2.20;;
58302;SDS011;44109;52.398;7.024;2022-07-05T07:33:27;4.65;;;2.28;;
58302;SDS011;44109;52.398;7.024;2022-07-05T07:35:57;2.88;;;1.77;;
58302;SDS011;44109;52.398;7.024;2022-07-05T07:38:24;2.95;;;1.98;;
58302;SDS011;44109;52.398;7.024;2022-07-05T07:40:52;3.25;;;1.95;;
58302;SDS011;44109;52.398;7.024;2022-07-05T07:43:20;3.80;;;1.70;;
58302;SDS011;44109;52.398;7.024;2022-07-05T07:45:47;3.17;;;1.88;;
58302;SDS011;44109;52.398;7.024;2022-07-05T07:48:15;3.88;;;2.45;;
58302;SDS011;44109;52.398;7.024;2022-07-05T07:50:43;2.97;;;2.00;;
58302;SDS011;44109;52.398;7.024;2022-07-05T07:53:11;3.15;;;1.80;;
58302;SDS011;44109;52.398;7.024;2022-07-05T07:55:39;4.97;;;2.30;;
58302;SDS011;44109;52.398;7.024;2022-07-05T07:58:06;2.78;;;1.63;;
58302;SDS011;44109;52.398;7.024;2022-07-05T08:00:34;2.72;;;1.85;;
58302;SDS011;44109;52.398;7.024;2022-07-05T08:03:01;2.78;;;1.90;;
58302;SDS011;44109;52.398;7.024;2022-07-05T08:05:29;2.05;;;1.35;;
58302;SDS011;44109;52.398;7.024;2022-07-05T08:07:56;2.47;;;1.35;;
58302;SDS011;44109;52.398;7.024;2022-07-05T08:10:25;3.03;;;1.38;;
58302;SDS011;44109;52.398;7.024;2022-07-05T08:12:53;2.63;;;1.10;;
58302;SDS011;44109;52.398;7.024;2022-07-05T08:15:20;2.58;;;1.83;;
58302;SDS011;44109;52.398;7.024;2022-07-05T08:17:48;3.45;;;1.63;;
58302;SDS011;44109;52.398;7.024;2022-07-05T08:20:33;3.92;;;1.55;;
58302;SDS011;44109;52.398;7.024;2022-07-05T08:23:30;3.80;;;1.58;;
58302;SDS011;44109;52.398;7.024;2022-07-05T08:25:58;2.50;;;1.20;;
58302;SDS011;44109;52.398;7.024;2022-07-05T08:28:26;2.60;;;1.10;;
58302;SDS011;44109;52.398;7.024;2022-07-05T08:30:54;2.08;;;1.55;;
58302;SDS011;44109;52.398;7.024;2022-07-05T08:33:22;3.60;;;1.50;;
58302;SDS011;44109;52.398;7.024;2022-07-05T08:35:50;3.80;;;1.70;;
58302;SDS011;44109;52.398;7.024;2022-07-05T08:38:17;2.65;;;1.70;;
58302;SDS011;44109;52.398;7.024;2022-07-05T08:40:46;7.45;;;2.33;;
58302;SDS011;44109;52.398;7.024;2022-07-05T08:43:18;3.35;;;2.13;;
58302;SDS011;44109;52.398;7.024;2022-07-05T08:45:49;4.37;;;1.80;;
58302;SDS011;44109;52.398;7.024;2022-07-05T08:48:20;2.78;;;1.45;;
58302;SDS011;44109;52.398;7.024;2022-07-05T08:50:49;2.10;;;1.23;;
58302;SDS011;44109;52.398;7.024;2022-07-05T08:53:18;2.15;;;1.20;;
58302;SDS011;44109;52.398;7.024;2022-07-05T08:55:46;2.25;;;1.52;;
58302;SDS011;44109;52.398;7.024;2022-07-05T08:58:14;2.33;;;1.33;;
58302;SDS011;44109;52.398;7.024;2022-07-05T09:00:43;4.15;;;1.20;;
58302;SDS011;44109;52.398;7.024;2022-07-05T09:03:10;3.28;;;1.52;;
58302;SDS011;44109;52.398;7.024;2022-07-05T09:05:39;1.60;;;0.95;;
58302;SDS011;44109;52.398;7.024;2022-07-05T09:08:13;1.10;;;0.70;;
58302;SDS011;44109;52.398;7.024;2022-07-05T09:10:42;2.10;;;0.93;;
58302;SDS011;44109;52.398;7.024;2022-07-05T09:13:10;3.45;;;1.20;;
58302;SDS011;44109;52.398;7.024;2022-07-05T09:15:38;2.28;;;0.77;;
58302;SDS011;44109;52.398;7.024;2022-07-05T09:18:08;1.50;;;0.68;;
58302;SDS011;44109;52.398;7.024;2022-07-05T09:20:36;1.52;;;0.80;;
58302;SDS011;44109;52.398;7.024;2022-07-05T09:23:04;2.72;;;0.90;;
58302;SDS011;44109;52.398;7.024;2022-07-05T09:25:32;1.15;;;0.50;;
58302;SDS011;44109;52.398;7.024;2022-07-05T09:28:00;2.00;;;0.80;;
58302;SDS011;44109;52.398;7.024;2022-07-05T09:30:31;2.50;;;0.88;;
58302;SDS011;44109;52.398;7.024;2022-07-05T09:33:03;1.00;;;0.70;;
58302;SDS011;44109;52.398;7.024;2022-07-05T09:35:37;1.33;;;0.73;;
58302;SDS011;44109;52.398;7.024;2022-07-05T09:38:16;4.47;;;1.30;;
58302;SDS011;44109;52.398;7.024;2022-07-05T09:40:46;1.25;;;0.65;;
58302;SDS011;44109;52.398;7.024;2022-07-05T09:43:15;1.92;;;0.80;;
58302;SDS011;44109;52.398;7.024;2022-07-05T09:45:55;1.48;;;0.60;;
58302;SDS011;44109;52.398;7.024;2022-07-05T09:48:27;1.50;;;0.57;;
58302;SDS011;44109;52.398;7.024;2022-07-05T09:51:07;1.10;;;0.70;;
58302;SDS011;44109;52.398;7.024;2022-07-05T09:53:46;1.33;;;0.80;;
58302;SDS011;44109;52.398;7.024;2022-07-05T09:56:16;2.50;;;0.75;;
58302;SDS011;44109;52.398;7.024;2022-07-05T09:58:44;1.15;;;0.77;;
58302;SDS011;44109;52.398;7.024;2022-07-05T10:01:24;1.55;;;0.70;;
58302;SDS011;44109;52.398;7.024;2022-07-05T10:03:55;1.17;;;0.90;;
58302;SDS011;44109;52.398;7.024;2022-07-05T10:06:27;3.10;;;1.15;;
58302;SDS011;44109;52.398;7.024;2022-07-05T10:08:58;1.70;;;0.77;;
58302;SDS011;44109;52.398;7.024;2022-07-05T10:11:27;1.77;;;0.80;;
58302;SDS011;44109;52.398;7.024;2022-07-05T10:13:55;1.75;;;1.02;;
58302;SDS011;44109;52.398;7.024;2022-07-05T10:16:25;1.67;;;1.10;;
58302;SDS011;44109;52.398;7.024;2022-07-05T10:18:54;2.55;;;1.30;;
58302;SDS011;44109;52.398;7.024;2022-07-05T10:21:23;1.30;;;0.95;;
58302;SDS011;44109;52.398;7.024;2022-07-05T10:23:52;8.65;;;2.13;;
58302;SDS011;44109;52.398;7.024;2022-07-05T10:26:21;3.42;;;1.05;;
58302;SDS011;44109;52.398;7.024;2022-07-05T10:28:52;1.42;;;1.00;;
58302;SDS011;44109;52.398;7.024;2022-07-05T10:31:20;5.45;;;1.10;;
58302;SDS011;44109;52.398;7.024;2022-07-05T10:33:52;2.80;;;0.80;;
58302;SDS011;44109;52.398;7.024;2022-07-05T10:36:22;1.00;;;0.70;;
58302;SDS011;44109;52.398;7.024;2022-07-05T10:38:50;2.20;;;0.93;;
58302;SDS011;44109;52.398;7.024;2022-07-05T10:41:20;2.22;;;1.05;;
58302;SDS011;44109;52.398;7.024;2022-07-05T10:43:52;2.83;;;0.98;;
58302;SDS011;44109;52.398;7.024;2022-07-05T10:46:32;2.10;;;0.80;;
58302;SDS011;44109;52.398;7.024;2022-07-05T10:49:13;1.60;;;0.90;;
58302;SDS011;44109;52.398;7.024;2022-07-05T10:51:43;1.92;;;0.90;;
58302;SDS011;44109;52.398;7.024;2022-07-05T10:54:11;2.58;;;1.42;;
58302;SDS011;44109;52.398;7.024;2022-07-05T10:56:39;6.78;;;1.45;;
58302;SDS011;44109;52.398;7.024;2022-07-05T10:59:07;1.92;;;1.00;;
58302;SDS011;44109;52.398;7.024;2022-07-05T11:01:38;2.42;;;1.20;;
58302;SDS011;44109;52.398;7.024;2022-07-05T11:04:11;2.35;;;1.10;;
58302;SDS011;44109;52.398;7.024;2022-07-05T11:06:56;3.00;;;1.10;;
58302;SDS011;44109;52.398;7.024;2022-07-05T11:09:24;2.17;;;0.88;;
58302;SDS011;44109;52.398;7.024;2022-07-05T11:14:44;1.17;;;0.73;;
58302;SDS011;44109;52.398;7.024;2022-07-05T11:17:14;1.88;;;0.70;;
58302;SDS011;44109;52.398;7.024;2022-07-05T11:20:03;3.90;;;1.33;;
58302;SDS011;44109;52.398;7.024;2022-07-05T11:22:37;2.08;;;0.90;;
58302;SDS011;44109;52.398;7.024;2022-07-05T11:25:07;2.75;;;1.13;;
58302;SDS011;44109;52.398;7.024;2022-07-05T11:30:31;4.45;;;1.65;;
58302;SDS011;44109;52.398;7.024;2022-07-05T11:33:32;2.83;;;1.40;;
58302;SDS011;44109;52.398;7.024;2022-07-05T11:36:07;1.85;;;1.25;;
58302;SDS011;44109;52.398;7.024;2022-07-05T11:39:11;4.22;;;1.77;;
58302;SDS011;44109;52.398;7.024;2022-07-05T11:41:43;3.08;;;1.48;;
58302;SDS011;44109;52.398;7.024;2022-07-05T11:44:12;3.03;;;1.50;;
58302;SDS011;44109;52.398;7.024;2022-07-05T11:46:42;3.08;;;1.42;;
58302;SDS011;44109;52.398;7.024;2022-07-05T11:49:10;2.22;;;1.40;;
58302;SDS011;44109;52.398;7.024;2022-07-05T11:51:39;2.10;;;1.50;;
58302;SDS011;44109;52.398;7.024;2022-07-05T11:54:08;5.25;;;1.50;;
58302;SDS011;44109;52.398;7.024;2022-07-05T11:56:37;3.25;;;1.42;;
58302;SDS011;44109;52.398;7.024;2022-07-05T11:59:16;3.03;;;1.42;;
58302;SDS011;44109;52.398;7.024;2022-07-05T12:01:45;2.88;;;1.15;;
58302;SDS011;44109;52.398;7.024;2022-07-05T12:04:20;2.20;;;1.27;;
58302;SDS011;44109;52.398;7.024;2022-07-05T12:06:50;1.90;;;1.10;;
58302;SDS011;44109;52.398;7.024;2022-07-05T12:09:22;2.97;;;1.25;;
58302;SDS011;44109;52.398;7.024;2022-07-05T12:11:51;3.10;;;0.90;;
58302;SDS011;44109;52.398;7.024;2022-07-05T12:14:36;1.35;;;0.93;;
58302;SDS011;44109;52.398;7.024;2022-07-05T12:17:13;2.50;;;1.30;;
58302;SDS011;44109;52.398;7.024;2022-07-05T12:19:42;2.17;;;1.20;;
58302;SDS011;44109;52.398;7.024;2022-07-05T12:22:13;2.40;;;1.23;;
58302;SDS011;44109;52.398;7.024;2022-07-05T12:24:41;1.95;;;1.17;;
58302;SDS011;44109;52.398;7.024;2022-07-05T12:27:09;3.22;;;1.63;;
58302;SDS011;44109;52.398;7.024;2022-07-05T12:29:37;2.33;;;1.30;;
58302;SDS011;44109;52.398;7.024;2022-07-05T12:32:05;2.28;;;1.40;;
58302;SDS011;44109;52.398;7.024;2022-07-05T12:34:34;1.77;;;1.17;;
58302;SDS011;44109;52.398;7.024;2022-07-05T12:37:02;2.90;;;1.13;;
58302;SDS011;44109;52.398;7.024;2022-07-05T12:39:32;3.03;;;1.50;;
58302;SDS011;44109;52.398;7.024;2022-07-05T12:42:01;2.90;;;1.58;;
58302;SDS011;44109;52.398;7.024;2022-07-05T12:44:29;2.13;;;1.40;;
58302;SDS011;44109;52.398;7.024;2022-07-05T12:47:02;4.00;;;1.30;;
58302;SDS011;44109;52.398;7.024;2022-07-05T12:49:31;2.28;;;1.30;;
58302;SDS011;44109;52.398;7.024;2022-07-05T12:52:18;2.17;;;1.25;;
58302;SDS011;44109;52.398;7.024;2022-07-05T12:54:47;3.83;;;1.55;;
58302;SDS011;44109;52.398;7.024;2022-07-05T12:57:52;3.47;;;1.17;;
58302;SDS011;44109;52.398;7.024;2022-07-05T13:00:29;2.10;;;1.10;;
58302;SDS011;44109;52.398;7.024;2022-07-05T13:02:56;2.72;;;1.20;;
58302;SDS011;44109;52.398;7.024;2022-07-05T13:05:24;2.05;;;0.80;;
58302;SDS011;44109;52.398;7.024;2022-07-05T13:07:52;2.47;;;1.10;;
58302;SDS011;44109;52.398;7.024;2022-07-05T13:10:23;2.70;;;1.40;;
58302;SDS011;44109;52.398;7.024;2022-07-05T13:12:54;4.35;;;1.50;;
58302;SDS011;44109;52.398;7.024;2022-07-05T13:15:21;2.63;;;1.48;;
58302;SDS011;44109;52.398;7.024;2022-07-05T13:17:49;1.80;;;1.17;;
58302;SDS011;44109;52.398;7.024;2022-07-05T13:20:19;2.63;;;1.50;;
58302;SDS011;44109;52.398;7.024;2022-07-05T13:22:48;4.05;;;1.20;;
58302;SDS011;44109;52.398;7.024;2022-07-05T13:25:17;2.53;;;1.00;;
58302;SDS011;44109;52.398;7.024;2022-07-05T13:27:46;2.55;;;1.10;;
58302;SDS011;44109;52.398;7.024;2022-07-05T13:30:14;4.78;;;1.30;;
58302;SDS011;44109;52.398;7.024;2022-07-05T13:32:41;3.17;;;0.98;;
58302;SDS011;44109;52.398;7.024;2022-07-05T13:35:09;2.65;;;1.05;;
58302;SDS011;44109;52.398;7.024;2022-07-05T13:37:37;2.45;;;1.30;;
58302;SDS011;44109;52.398;7.024;2022-07-05T13:40:05;2.58;;;1.00;;
58302;SDS011;44109;52.398;7.024;2022-07-05T13:42:34;1.98;;;1.05;;
58302;SDS011;44109;52.398;7.024;2022-07-05T13:45:03;3.03;;;1.20;;
58302;SDS011;44109;52.398;7.024;2022-07-05T13:47:32;3.08;;;0.90;;
58302;SDS011;44109;52.398;7.024;2022-07-05T13:49:59;2.17;;;0.95;;
58302;SDS011;44109;52.398;7.024;2022-07-05T13:52:44;1.10;;;0.75;;
58302;SDS011;44109;52.398;7.024;2022-07-05T13:55:12;3.95;;;0.95;;
58302;SDS011;44109;52.398;7.024;2022-07-05T13:57:39;2.92;;;1.13;;
58302;SDS011;44109;52.398;7.024;2022-07-05T14:00:11;2.45;;;0.93;;
58302;SDS011;44109;52.398;7.024;2022-07-05T14:02:39;3.28;;;1.30;;
58302;SDS011;44109;52.398;7.024;2022-07-05T14:05:07;2.75;;;0.88;;
58302;SDS011;44109;52.398;7.024;2022-07-05T14:07:36;3.75;;;1.02;;
58302;SDS011;44109;52.398;7.024;2022-07-05T14:10:04;3.45;;;0.80;;
58302;SDS011;44109;52.398;7.024;2022-07-05T14:12:32;3.30;;;0.90;;
58302;SDS011;44109;52.398;7.024;2022-07-05T14:15:00;2.95;;;1.13;;
58302;SDS011;44109;52.398;7.024;2022-07-05T14:17:29;2.20;;;0.60;;
58302;SDS011;44109;52.398;7.024;2022-07-05T14:19:56;2.80;;;0.93;;
58302;SDS011;44109;52.398;7.024;2022-07-05T14:22:24;3.45;;;0.90;;
58302;SDS011;44109;52.398;7.024;2022-07-05T14:24:51;1.35;;;0.70;;
58302;SDS011;44109;52.398;7.024;2022-07-05T14:27:19;2.65;;;0.85;;
58302;SDS011;44109;52.398;7.024;2022-07-05T14:29:46;2.58;;;1.02;;
58302;SDS011;44109;52.398;7.024;2022-07-05T14:32:14;2.50;;;0.82;;
58302;SDS011;44109;52.398;7.024;2022-07-05T14:34:43;2.60;;;0.93;;
58302;SDS011;44109;52.398;7.024;2022-07-05T14:37:10;2.95;;;0.68;;
58302;SDS011;44109;52.398;7.024;2022-07-05T14:39:38;2.85;;;0.60;;
58302;SDS011;44109;52.398;7.024;2022-07-05T14:42:05;2.88;;;0.80;;
58302;SDS011;44109;52.398;7.024;2022-07-05T14:44:33;3.40;;;1.10;;
58302;SDS011;44109;52.398;7.024;2022-07-05T14:47:01;1.95;;;0.70;;
58302;SDS011;44109;52.398;7.024;2022-07-05T14:49:28;2.17;;;0.77;;
58302;SDS011;44109;52.398;7.024;2022-07-05T14:51:57;3.03;;;1.15;;
58302;SDS011;44109;52.398;7.024;2022-07-05T14:54:25;3.90;;;0.88;;
58302;SDS011;44109;52.398;7.024;2022-07-05T14:56:52;1.08;;;0.50;;
58302;SDS011;44109;52.398;7.024;2022-07-05T14:59:20;1.95;;;0.90;;
58302;SDS011;44109;52.398;7.024;2022-07-05T15:01:48;1.50;;;0.88;;
58302;SDS011;44109;52.398;7.024;2022-07-05T15:04:15;1.55;;;0.70;;
58302;SDS011;44109;52.398;7.024;2022-07-05T15:06:43;2.83;;;0.60;;